sensor_id;sensor_type;location;lat;lon;timestamp;pressure;altitude;pressure_sealevel;temperature;humidity
19748;BME280;10032;51.386;12.516;2023-03-25T00:01:37;99081.19;;;10.64;100.00
19748;BME280;10032;51.386;12.516;2023-03-25T00:04:03;99087.13;;;10.66;100.00
19748;BME280;10032;51.386;12.516;2023-03-25T00:06:32;99081.19;;;10.64;100.00
19748;BME280;10032;51.386;12.516;2023-03-25T00:09:01;99094.75;;;10.59;100.00
19748;BME280;10032;51.386;12.516;2023-03-25T00:11:28;99088.25;;;10.55;100.00
19748;BME280;10032;51.386;12.516;2023-03-25T00:13:53;99088.25;;;10.55;100.00
19748;BME280;10032;51.386;12.516;2023-03-25T00:16:19;99074.47;;;10.52;100.00
19748;BME280;10032;51.386;12.516;2023-03-25T00:18:44;99078.53;;;10.49;100.00
19748;BME280;10032;51.386;12.516;2023-03-25T00:21:12;99076.34;;;10.46;100.00
19748;BME280;10032;51.386;12.516;2023-03-25T00:23:38;99077.97;;;10.47;100.00
19748;BME280;10032;51.386;12.516;2023-03-25T00:26:04;99069.59;;;10.44;100.00
19748;BME280;10032;51.386;12.516;2023-03-25T00:28:33;99063.38;;;10.43;100.00
19748;BME280;10032;51.386;12.516;2023-03-25T00:31:00;99073.66;;;10.41;100.00
19748;BME280;10032;51.386;12.516;2023-03-25T00:33:27;99070.16;;;10.41;100.00
19748;BME280;10032;51.386;12.516;2023-03-25T00:35:53;99078.00;;;10.42;100.00
19748;BME280;10032;51.386;12.516;2023-03-25T00:38:30;99070.69;;;10.43;100.00
19748;BME280;10032;51.386;12.516;2023-03-25T00:41:21;99071.50;;;10.43;100.00
19748;BME280;10032;51.386;12.516;2023-03-25T00:43:54;99075.56;;;10.46;100.00
19748;BME280;10032;51.386;12.516;2023-03-25T00:46:22;99069.59;;;10.44;100.00
19748;BME280;10032;51.386;12.516;2023-03-25T00:48:48;99080.16;;;10.45;100.00
19748;BME280;10032;51.386;12.516;2023-03-25T00:51:15;99075.81;;;10.49;100.00
19748;BME280;10032;51.386;12.516;2023-03-25T00:53:44;99080.13;;;10.50;100.00
19748;BME280;10032;51.386;12.516;2023-03-25T00:56:10;99083.38;;;10.52;100.00
19748;BME280;10032;51.386;12.516;2023-03-25T00:58:36;99082.00;;;10.55;100.00
19748;BME280;10032;51.386;12.516;2023-03-25T01:01:14;99074.19;;;10.58;100.00
19748;BME280;10032;51.386;12.516;2023-03-25T01:03:41;99072.81;;;10.61;100.00
19748;BME280;10032;51.386;12.516;2023-03-25T01:06:14;99071.16;;;10.65;100.00
19748;BME280;10032;51.386;12.516;2023-03-25T01:08:41;99076.03;;;10.68;100.00
19748;BME280;10032;51.386;12.516;2023-03-25T01:11:20;99066.81;;;10.69;100.00
19748;BME280;10032;51.386;12.516;2023-03-25T01:13:45;99057.03;;;10.73;100.00
19748;BME280;10032;51.386;12.516;2023-03-25T01:16:11;99049.72;;;10.73;100.00
19748;BME280;10032;51.386;12.516;2023-03-25T01:18:36;99051.88;;;10.76;100.00
19748;BME280;10032;51.386;12.516;2023-03-25T01:21:06;99041.03;;;10.76;100.00
19748;BME280;10032;51.386;12.516;2023-03-25T01:23:32;99046.72;;;10.80;100.00
19748;BME280;10032;51.386;12.516;2023-03-25T01:25:59;99048.91;;;10.78;100.00
19748;BME280;10032;51.386;12.516;2023-03-25T01:28:25;99034.78;;;10.81;100.00
19748;BME280;10032;51.386;12.516;2023-03-25T01:30:59;99032.38;;;10.79;100.00
19748;BME280;10032;51.386;12.516;2023-03-25T01:33:24;99032.91;;;10.81;100.00
19748;BME280;10032;51.386;12.516;2023-03-25T01:35:50;99040.50;;;10.79;100.00
19748;BME280;10032;51.386;12.516;2023-03-25T01:38:16;99025.03;;;10.80;100.00
19748;BME280;10032;51.386;12.516;2023-03-25T01:40:44;99034.25;;;10.84;100.00
19748;BME280;10032;51.386;12.516;2023-03-25T01:43:10;99033.38;;;10.88;100.00
19748;BME280;10032;51.386;12.516;2023-03-25T01:45:37;99032.28;;;10.89;100.00
19748;BME280;10032;51.386;12.516;2023-03-25T01:48:19;99021.72;;;10.93;100.00
19748;BME280;10032;51.386;12.516;2023-03-25T01:51:02;99014.41;;;10.93;100.00
19748;BME280;10032;51.386;12.516;2023-03-25T01:53:31;99010.03;;;10.97;100.00
19748;BME280;10032;51.386;12.516;2023-03-25T01:55:59;99009.47;;;11.00;100.00
19748;BME280;10032;51.386;12.516;2023-03-25T01:58:26;99001.34;;;11.00;100.00
19748;BME280;10032;51.386;12.516;2023-03-25T02:00:53;98997.00;;;10.99;100.00
19748;BME280;10032;51.386;12.516;2023-03-25T02:03:20;98988.34;;;11.02;100.00
19748;BME280;10032;51.386;12.516;2023-03-25T02:06:00;98986.72;;;11.01;100.00
19748;BME280;10032;51.386;12.516;2023-03-25T02:08:29;98991.03;;;11.02;100.00
19748;BME280;10032;51.386;12.516;2023-03-25T02:11:02;98992.38;;;11.05;100.00
19748;BME280;10032;51.386;12.516;2023-03-25T02:13:28;98988.84;;;11.04;100.00
19748;BME280;10032;51.386;12.516;2023-03-25T02:16:14;99001.03;;;11.07;100.00
19748;BME280;10032;51.386;12.516;2023-03-25T02:21:51;98991.56;;;11.04;100.00
19748;BME280;10032;51.386;12.516;2023-03-25T02:28:41;98987.19;;;11.13;100.00
19748;BME280;10032;51.386;12.516;2023-03-25T02:39:12;98984.97;;;11.15;100.00
19748;BME280;10032;51.386;12.516;2023-03-25T02:41:55;98973.34;;;11.15;100.00
19748;BME280;10032;51.386;12.516;2023-03-25T02:44:42;98974.38;;;11.19;100.00
19748;BME280;10032;51.386;12.516;2023-03-25T02:47:17;98975.19;;;11.19;100.00
19748;BME280;10032;51.386;12.516;2023-03-25T02:49:47;98971.66;;;11.19;100.00
19748;BME280;10032;51.386;12.516;2023-03-25T02:52:20;98967.06;;;11.19;100.00
19748;BME280;10032;51.386;12.516;2023-03-25T02:54:50;98974.13;;;11.15;100.00
19748;BME280;10032;51.386;12.516;2023-03-25T02:57:19;98976.06;;;11.15;100.00
19748;BME280;10032;51.386;12.516;2023-03-25T02:59:47;98973.38;;;11.10;100.00
19748;BME280;10032;51.386;12.516;2023-03-25T03:02:16;98972.59;;;11.04;100.00
19748;BME280;10032;51.386;12.516;2023-03-25T03:04:53;98984.00;;;11.01;100.00
19748;BME280;10032;51.386;12.516;2023-03-25T03:07:39;98980.47;;;11.01;100.00
19748;BME280;10032;51.386;12.516;2023-03-25T03:10:17;98979.66;;;11.00;100.00
19748;BME280;10032;51.386;12.516;2023-03-25T03:21:27;98973.44;;;11.00;100.00
19748;BME280;10032;51.386;12.516;2023-03-25T03:24:10;98979.97;;;10.99;100.00
19748;BME280;10032;51.386;12.516;2023-03-25T03:26:50;98974.53;;;10.99;100.00
19748;BME280;10032;51.386;12.516;2023-03-25T03:29:22;98982.09;;;11.02;100.00
19748;BME280;10032;51.386;12.516;2023-03-25T03:32:00;98981.81;;;11.03;100.00
19748;BME280;10032;51.386;12.516;2023-03-25T03:34:32;98988.31;;;11.07;100.00
19748;BME280;10032;51.386;12.516;2023-03-25T03:37:00;98988.81;;;11.09;100.00
19748;BME280;10032;51.386;12.516;2023-03-25T03:39:31;98986.13;;;11.09;100.00
19748;BME280;10032;51.386;12.516;2023-03-25T03:44:42;98987.44;;;11.12;100.00
19748;BME280;10032;51.386;12.516;2023-03-25T03:47:13;98983.09;;;11.16;100.00
19748;BME280;10032;51.386;12.516;2023-03-25T03:49:52;98977.41;;;11.17;100.00
19748;BME280;10032;51.386;12.516;2023-03-25T03:52:22;98980.66;;;11.14;100.00
19748;BME280;10032;51.386;12.516;2023-03-25T03:55:06;98981.75;;;11.13;100.00
19748;BME280;10032;51.386;12.516;2023-03-25T03:57:38;98984.44;;;11.18;100.00
19748;BME280;10032;51.386;12.516;2023-03-25T04:05:39;98996.31;;;11.27;100.00
19748;BME280;10032;51.386;12.516;2023-03-25T04:08:30;98996.00;;;11.29;100.00
19748;BME280;10032;51.386;12.516;2023-03-25T04:11:09;99008.50;;;11.30;100.00
19748;BME280;10032;51.386;12.516;2023-03-25T04:13:38;98996.28;;;11.32;100.00
19748;BME280;10032;51.386;12.516;2023-03-25T04:16:05;99009.00;;;11.32;100.00
19748;BME280;10032;51.386;12.516;2023-03-25T04:18:31;99008.72;;;11.33;100.00
19748;BME280;10032;51.386;12.516;2023-03-25T04:20:58;99003.31;;;11.33;100.00
19748;BME280;10032;51.386;12.516;2023-03-25T04:23:25;99014.41;;;11.37;100.00
19748;BME280;10032;51.386;12.516;2023-03-25T04:25:54;99016.00;;;11.38;100.00
19748;BME280;10032;51.386;12.516;2023-03-25T04:28:20;99018.19;;;11.36;100.00
19748;BME280;10032;51.386;12.516;2023-03-25T04:30:46;99023.88;;;11.39;100.00
19748;BME280;10032;51.386;12.516;2023-03-25T04:33:21;99030.91;;;11.40;100.00
19748;BME280;10032;51.386;12.516;2023-03-25T04:35:47;99026.84;;;11.38;100.00
19748;BME280;10032;51.386;12.516;2023-03-25T04:38:15;99039.63;;;11.37;100.00
19748;BME280;10032;51.386;12.516;2023-03-25T04:40:41;99034.75;;;11.34;100.00
19748;BME280;10032;51.386;12.516;2023-03-25T04:43:14;99022.81;;;11.35;100.00
19748;BME280;10032;51.386;12.516;2023-03-25T04:45:40;99036.94;;;11.32;100.00
19748;BME280;10032;51.386;12.516;2023-03-25T04:48:27;99034.78;;;11.29;100.00
19748;BME280;10032;51.386;12.516;2023-03-25T04:50:58;99035.59;;;11.30;100.00
19748;BME280;10032;51.386;12.516;2023-03-25T04:53:25;99034.78;;;11.29;100.00
19748;BME280;10032;51.386;12.516;2023-03-25T04:55:51;99027.75;;;11.28;100.00
19748;BME280;10032;51.386;12.516;2023-03-25T04:58:18;99033.72;;;11.25;100.00
19748;BME280;10032;51.386;12.516;2023-03-25T05:00:45;99033.72;;;11.25;100.00
19748;BME280;10032;51.386;12.516;2023-03-25T05:03:13;99032.63;;;11.26;100.00
19748;BME280;10032;51.386;12.516;2023-03-25T05:05:40;99035.06;;;11.28;100.00
19748;BME280;10032;51.386;12.516;2023-03-25T05:08:06;99032.63;;;11.26;100.00
19748;BME280;10032;51.386;12.516;2023-03-25T05:10:32;99020.72;;;11.27;100.00
19748;BME280;10032;51.386;12.516;2023-03-25T05:13:04;99023.44;;;11.22;100.00
19748;BME280;10032;51.386;12.516;2023-03-25T05:15:31;99016.38;;;11.21;100.00
19748;BME280;10032;51.386;12.516;2023-03-25T05:18:00;99008.78;;;11.23;100.00
19748;BME280;10032;51.386;12.516;2023-03-25T05:20:26;99018.56;;;11.19;100.00
19748;BME280;10032;51.386;12.516;2023-03-25T05:22:52;99008.25;;;11.21;100.00
19748;BME280;10032;51.386;12.516;2023-03-25T05:25:21;99002.56;;;11.23;100.00
19748;BME280;10032;51.386;12.516;2023-03-25T05:27:47;99005.53;;;11.21;100.00
19748;BME280;10032;51.386;12.516;2023-03-25T05:30:13;98997.47;;;11.16;100.00
19748;BME280;10032;51.386;12.516;2023-03-25T05:32:40;99013.19;;;11.14;100.00
19748;BME280;10032;51.386;12.516;2023-03-25T05:35:06;99014.00;;;11.15;100.00
19748;BME280;10032;51.386;12.516;2023-03-25T05:37:31;99009.69;;;11.14;100.00
19748;BME280;10032;51.386;12.516;2023-03-25T05:39:57;99017.50;;;11.15;100.00
19748;BME280;10032;51.386;12.516;2023-03-25T05:42:23;99015.38;;;11.12;100.00
19748;BME280;10032;51.386;12.516;2023-03-25T05:44:50;99022.13;;;11.15;100.00
19748;BME280;10032;51.386;12.516;2023-03-25T05:47:23;99028.34;;;11.15;100.00
19748;BME280;10032;51.386;12.516;2023-03-25T05:49:50;99025.38;;;11.17;100.00
19748;BME280;10032;51.386;12.516;2023-03-25T05:52:17;99031.03;;;11.20;100.00
19748;BME280;10032;51.386;12.516;2023-03-25T05:54:44;99032.16;;;11.14;100.00
19748;BME280;10032;51.386;12.516;2023-03-25T05:57:11;99032.44;;;11.13;100.00
19748;BME280;10032;51.386;12.516;2023-03-25T05:59:37;99033.53;;;11.12;100.00
19748;BME280;10032;51.386;12.516;2023-03-25T06:02:04;99024.59;;;11.11;100.00
19748;BME280;10032;51.386;12.516;2023-03-25T06:04:32;99026.25;;;11.07;100.00
19748;BME280;10032;51.386;12.516;2023-03-25T06:07:05;99030.84;;;11.07;100.00
19748;BME280;10032;51.386;12.516;2023-03-25T06:09:33;99043.31;;;11.08;100.00
19748;BME280;10032;51.386;12.516;2023-03-25T06:11:59;99035.47;;;11.06;100.00
19748;BME280;10032;51.386;12.516;2023-03-25T06:14:26;99041.94;;;11.10;100.00
19748;BME280;10032;51.386;12.516;2023-03-25T06:16:51;99043.03;;;11.09;100.00
19748;BME280;10032;51.386;12.516;2023-03-25T06:19:16;99044.94;;;11.14;100.00
19748;BME280;10032;51.386;12.516;2023-03-25T06:21:42;99050.63;;;11.12;100.00
19748;BME280;10032;51.386;12.516;2023-03-25T06:24:08;99050.63;;;11.12;100.00
19748;BME280;10032;51.386;12.516;2023-03-25T06:26:33;99054.34;;;11.21;100.00
19748;BME280;10032;51.386;12.516;2023-03-25T06:28:58;99055.69;;;11.24;100.00
19748;BME280;10032;51.386;12.516;2023-03-25T06:31:25;99053.50;;;11.31;100.00
19748;BME280;10032;51.386;12.516;2023-03-25T06:33:52;99055.03;;;11.42;100.00
19748;BME280;10032;51.386;12.516;2023-03-25T06:36:18;99056.38;;;11.44;100.00
19748;BME280;10032;51.386;12.516;2023-03-25T06:38:45;99057.97;;;11.50;100.00
19748;BME280;10032;51.386;12.516;2023-03-25T06:41:11;99057.69;;;11.52;100.00
19748;BME280;10032;51.386;12.516;2023-03-25T06:43:38;99057.91;;;11.55;100.00
19748;BME280;10032;51.386;12.516;2023-03-25T06:46:04;99055.47;;;11.59;100.00
19748;BME280;10032;51.386;12.516;2023-03-25T06:48:29;99054.34;;;11.65;100.00
19748;BME280;10032;51.386;12.516;2023-03-25T06:50:55;99070.31;;;11.71;100.00
19748;BME280;10032;51.386;12.516;2023-03-25T06:53:21;99059.47;;;11.71;100.00
19748;BME280;10032;51.386;12.516;2023-03-25T06:55:47;99058.31;;;11.77;100.00
19748;BME280;10032;51.386;12.516;2023-03-25T06:58:12;99058.03;;;11.79;100.00
19748;BME280;10032;51.386;12.516;2023-03-25T07:00:37;99056.38;;;11.83;100.00
19748;BME280;10032;51.386;12.516;2023-03-25T07:03:03;99063.72;;;11.82;100.00
19748;BME280;10032;51.386;12.516;2023-03-25T07:05:28;99052.91;;;11.77;100.00
19748;BME280;10032;51.386;12.516;2023-03-25T07:07:54;99052.84;;;11.82;100.00
19748;BME280;10032;51.386;12.516;2023-03-25T07:10:19;99059.94;;;11.78;100.00
19748;BME280;10032;51.386;12.516;2023-03-25T07:12:45;99057.19;;;11.83;100.00
19748;BME280;10032;51.386;12.516;2023-03-25T07:15:11;99062.56;;;11.88;100.00
19748;BME280;10032;51.386;12.516;2023-03-25T07:17:36;99062.75;;;11.97;100.00
19748;BME280;10032;51.386;12.516;2023-03-25T07:20:04;99064.63;;;12.01;100.00
19748;BME280;10032;51.386;12.516;2023-03-25T07:22:30;99069.16;;;12.11;100.00
19748;BME280;10032;51.386;12.516;2023-03-25T07:24:56;99070.72;;;12.17;100.00
19748;BME280;10032;51.386;12.516;2023-03-25T07:27:23;99077.41;;;12.29;100.00
19748;BME280;10032;51.386;12.516;2023-03-25T07:29:48;99080.53;;;12.41;100.00
19748;BME280;10032;51.386;12.516;2023-03-25T07:32:13;99083.72;;;12.48;100.00
19748;BME280;10032;51.386;12.516;2023-03-25T07:34:39;99083.25;;;12.41;100.00
19748;BME280;10032;51.386;12.516;2023-03-25T07:37:05;99095.94;;;12.22;100.00
19748;BME280;10032;51.386;12.516;2023-03-25T07:39:32;99095.78;;;12.09;100.00
19748;BME280;10032;51.386;12.516;2023-03-25T07:41:57;99095.59;;;11.95;100.00
19748;BME280;10032;51.386;12.516;2023-03-25T07:44:23;99114.72;;;11.85;100.00
19748;BME280;10032;51.386;12.516;2023-03-25T07:46:48;99108.84;;;11.68;100.00
19748;BME280;10032;51.386;12.516;2023-03-25T07:49:15;99114.06;;;11.55;100.00
19748;BME280;10032;51.386;12.516;2023-03-25T07:51:42;99118.47;;;11.51;100.00
19748;BME280;10032;51.386;12.516;2023-03-25T07:54:08;99110.00;;;11.52;100.00
19748;BME280;10032;51.386;12.516;2023-03-25T07:56:34;99113.81;;;11.51;100.00
19748;BME280;10032;51.386;12.516;2023-03-25T07:58:59;99111.66;;;11.53;100.00
19748;BME280;10032;51.386;12.516;2023-03-25T08:01:25;99110.34;;;11.46;100.00
19748;BME280;10032;51.386;12.516;2023-03-25T08:03:51;99108.47;;;11.41;100.00
19748;BME280;10032;51.386;12.516;2023-03-25T08:06:16;99109.50;;;11.50;100.00
19748;BME280;10032;51.386;12.516;2023-03-25T08:08:42;99117.31;;;11.62;100.00
19748;BME280;10032;51.386;12.516;2023-03-25T08:11:07;99114.81;;;11.70;100.00
19748;BME280;10032;51.386;12.516;2023-03-25T08:13:33;99112.59;;;11.77;100.00
19748;BME280;10032;51.386;12.516;2023-03-25T08:15:58;99120.22;;;11.75;100.00
19748;BME280;10032;51.386;12.516;2023-03-25T08:18:24;99123.38;;;11.87;100.00
19748;BME280;10032;51.386;12.516;2023-03-25T08:20:50;99118.22;;;11.86;100.00
19748;BME280;10032;51.386;12.516;2023-03-25T08:23:19;99119.53;;;11.93;100.00
19748;BME280;10032;51.386;12.516;2023-03-25T08:25:47;99123.25;;;12.02;100.00
19748;BME280;10032;51.386;12.516;2023-03-25T08:28:15;99111.06;;;12.00;100.00
19748;BME280;10032;51.386;12.516;2023-03-25T08:30:51;99121.03;;;12.09;100.00
19748;BME280;10032;51.386;12.516;2023-03-25T08:33:20;99121.41;;;12.26;100.00
19748;BME280;10032;51.386;12.516;2023-03-25T08:35:46;99120.75;;;12.39;100.00
19748;BME280;10032;51.386;12.516;2023-03-25T08:38:11;99121.28;;;12.41;100.00
19748;BME280;10032;51.386;12.516;2023-03-25T08:40:37;99131.06;;;12.37;100.00
19748;BME280;10032;51.386;12.516;2023-03-25T08:43:04;99108.94;;;12.25;100.00
19748;BME280;10032;51.386;12.516;2023-03-25T08:45:30;99117.34;;;12.24;100.00
19748;BME280;10032;51.386;12.516;2023-03-25T08:48:00;99125.84;;;12.17;100.00
19748;BME280;10032;51.386;12.516;2023-03-25T08:50:26;99125.91;;;12.12;100.00
19748;BME280;10032;51.386;12.516;2023-03-25T08:52:51;99136.75;;;12.12;100.00
19748;BME280;10032;51.386;12.516;2023-03-25T08:55:18;99129.75;;;12.06;100.00
19748;BME280;10032;51.386;12.516;2023-03-25T08:57:44;99131.97;;;11.99;100.00
19748;BME280;10032;51.386;12.516;2023-03-25T09:00:10;99135.53;;;11.95;100.00
19748;BME280;10032;51.386;12.516;2023-03-25T09:02:39;99141.28;;;11.88;100.00
19748;BME280;10032;51.386;12.516;2023-03-25T09:05:05;99134.50;;;11.86;100.00
19748;BME280;10032;51.386;12.516;2023-03-25T09:07:31;99136.47;;;11.80;100.00
19748;BME280;10032;51.386;12.516;2023-03-25T09:09:56;99150.03;;;11.80;100.00
19748;BME280;10032;51.386;12.516;2023-03-25T09:12:21;99136.50;;;11.75;100.00
19748;BME280;10032;51.386;12.516;2023-03-25T09:14:48;99141.38;;;11.73;100.00
19748;BME280;10032;51.386;12.516;2023-03-25T09:17:13;99133.16;;;11.83;100.00
19748;BME280;10032;51.386;12.516;2023-03-25T09:19:39;99128.25;;;11.90;100.00
19748;BME280;10032;51.386;12.516;2023-03-25T09:22:06;99115.34;;;12.06;100.00
19748;BME280;10032;51.386;12.516;2023-03-25T09:24:31;99118.69;;;12.26;100.00
19748;BME280;10032;51.386;12.516;2023-03-25T09:26:59;99109.84;;;12.44;100.00
19748;BME280;10032;51.386;12.516;2023-03-25T09:29:25;99095.06;;;12.55;100.00
19748;BME280;10032;51.386;12.516;2023-03-25T09:31:50;99100.88;;;12.91;100.00
19748;BME280;10032;51.386;12.516;2023-03-25T09:34:15;99103.91;;;13.13;100.00
19748;BME280;10032;51.386;12.516;2023-03-25T09:36:41;99102.44;;;13.20;100.00
19748;BME280;10032;51.386;12.516;2023-03-25T09:39:06;99102.38;;;13.25;100.00
19748;BME280;10032;51.386;12.516;2023-03-25T09:45:53;99097.88;;;12.92;100.00
19748;BME280;10032;51.386;12.516;2023-03-25T09:50:44;99105.44;;;12.72;100.00
19748;BME280;10032;51.386;12.516;2023-03-25T09:56:10;99105.66;;;12.80;100.00
19748;BME280;10032;51.386;12.516;2023-03-25T09:58:47;99103.66;;;12.86;100.00
19748;BME280;10032;51.386;12.516;2023-03-25T10:06:20;99107.34;;;13.00;100.00
19748;BME280;10032;51.386;12.516;2023-03-25T10:14:05;99097.88;;;14.40;100.00
19748;BME280;10032;51.386;12.516;2023-03-25T10:16:50;99096.88;;;14.63;100.00
19748;BME280;10032;51.386;12.516;2023-03-25T10:25:04;99081.16;;;15.01;100.00
19748;BME280;10032;51.386;12.516;2023-03-25T10:28:00;99080.44;;;14.82;100.00
19748;BME280;10032;51.386;12.516;2023-03-25T10:30:34;99088.13;;;14.93;100.00
19748;BME280;10032;51.386;12.516;2023-03-25T10:33:07;99080.63;;;14.72;100.00
19748;BME280;10032;51.386;12.516;2023-03-25T10:35:39;99069.81;;;14.53;100.00
19748;BME280;10032;51.386;12.516;2023-03-25T10:40:44;99085.81;;;13.96;100.00
19748;BME280;10032;51.386;12.516;2023-03-25T10:43:24;99077.94;;;13.94;100.00
19748;BME280;10032;51.386;12.516;2023-03-25T10:45:54;99083.00;;;14.01;100.00
19748;BME280;10032;51.386;12.516;2023-03-25T10:48:27;99079.13;;;13.88;100.00
19748;BME280;10032;51.386;12.516;2023-03-25T10:53:39;99084.00;;;13.73;100.00
19748;BME280;10032;51.386;12.516;2023-03-25T10:56:32;99073.25;;;13.81;100.00
19748;BME280;10032;51.386;12.516;2023-03-25T10:58:57;99085.94;;;14.04;100.00
19748;BME280;10032;51.386;12.516;2023-03-25T11:01:36;99087.56;;;14.37;100.00
19748;BME280;10032;51.386;12.516;2023-03-25T11:04:04;99073.84;;;14.56;100.00
19748;BME280;10032;51.386;12.516;2023-03-25T11:06:35;99067.09;;;14.67;100.00
19748;BME280;10032;51.386;12.516;2023-03-25T11:09:27;99070.03;;;15.11;100.00
19748;BME280;10032;51.386;12.516;2023-03-25T11:11:55;99085.66;;;15.19;99.39
19748;BME280;10032;51.386;12.516;2023-03-25T11:14:26;99080.53;;;14.90;96.38
19748;BME280;10032;51.386;12.516;2023-03-25T11:16:58;99069.13;;;14.61;93.94
19748;BME280;10032;51.386;12.516;2023-03-25T11:19:27;99085.09;;;14.54;95.13
19748;BME280;10032;51.386;12.516;2023-03-25T11:22:01;99084.75;;;14.56;95.88
19748;BME280;10032;51.386;12.516;2023-03-25T11:24:33;99073.84;;;14.56;95.33
19748;BME280;10032;51.386;12.516;2023-03-25T11:26:59;99071.47;;;14.54;95.38
19748;BME280;10032;51.386;12.516;2023-03-25T11:29:26;99067.81;;;14.59;94.34
19748;BME280;10032;51.386;12.516;2023-03-25T11:32:12;99067.09;;;14.80;92.83
19748;BME280;10032;51.386;12.516;2023-03-25T11:34:37;99057.63;;;14.91;93.25
19748;BME280;10032;51.386;12.516;2023-03-25T11:37:18;99064.41;;;14.94;92.05
19748;BME280;10032;51.386;12.516;2023-03-25T11:39:52;99052.97;;;14.78;90.42
19748;BME280;10032;51.386;12.516;2023-03-25T11:42:30;99054.78;;;14.83;90.56
19748;BME280;10032;51.386;12.516;2023-03-25T11:44:57;99036.69;;;15.00;90.81
19748;BME280;10032;51.386;12.516;2023-03-25T11:47:28;99048.78;;;15.08;90.85
19748;BME280;10032;51.386;12.516;2023-03-25T11:49:55;99045.97;;;15.13;90.61
19748;BME280;10032;51.386;12.516;2023-03-25T11:52:24;99035.94;;;15.22;89.06
19748;BME280;10032;51.386;12.516;2023-03-25T11:54:54;99026.66;;;15.09;85.15
19748;BME280;10032;51.386;12.516;2023-03-25T11:57:25;99041.13;;;15.10;86.80
19748;BME280;10032;51.386;12.516;2023-03-25T12:00:04;99018.44;;;15.23;86.40
19748;BME280;10032;51.386;12.516;2023-03-25T12:02:38;99015.28;;;15.43;86.14
19748;BME280;10032;51.386;12.516;2023-03-25T12:07:45;99009.75;;;16.00;85.22
19748;BME280;10032;51.386;12.516;2023-03-25T12:10:17;99000.03;;;16.16;84.82
19748;BME280;10032;51.386;12.516;2023-03-25T12:12:53;99000.16;;;16.11;83.97
19748;BME280;10032;51.386;12.516;2023-03-25T12:15:43;98984.63;;;16.20;82.63
19748;BME280;10032;51.386;12.516;2023-03-25T12:30:09;99005.75;;;15.18;86.86
19748;BME280;10032;51.386;12.516;2023-03-25T12:32:46;99001.97;;;14.92;90.91
19748;BME280;10032;51.386;12.516;2023-03-25T12:35:26;99008.84;;;14.76;91.25
19748;BME280;10032;51.386;12.516;2023-03-25T12:38:03;99011.47;;;14.68;90.52
19748;BME280;10032;51.386;12.516;2023-03-25T12:43:21;98989.81;;;14.98;92.51
19748;BME280;10032;51.386;12.516;2023-03-25T12:46:21;98980.63;;;15.30;92.77
19748;BME280;10032;51.386;12.516;2023-03-25T12:49:10;98984.97;;;15.66;93.23
19748;BME280;10032;51.386;12.516;2023-03-25T12:51:56;98971.34;;;15.75;91.67
19748;BME280;10032;51.386;12.516;2023-03-25T13:08:34;98946.97;;;16.39;84.23
19748;BME280;10032;51.386;12.516;2023-03-25T13:11:06;98955.97;;;16.09;83.78
19748;BME280;10032;51.386;12.516;2023-03-25T13:13:34;99001.81;;;15.90;84.34
19748;BME280;10032;51.386;12.516;2023-03-25T13:18:38;99023.47;;;13.62;96.28
19748;BME280;10032;51.386;12.516;2023-03-25T13:23:42;99053.06;;;12.43;100.00
19748;BME280;10032;51.386;12.516;2023-03-25T13:26:11;99062.16;;;12.33;100.00
19748;BME280;10032;51.386;12.516;2023-03-25T13:28:43;99063.41;;;12.17;100.00
19748;BME280;10032;51.386;12.516;2023-03-25T13:31:22;99060.38;;;12.19;100.00
19748;BME280;10032;51.386;12.516;2023-03-25T13:36:30;99037.81;;;11.95;100.00
19748;BME280;10032;51.386;12.516;2023-03-25T13:39:09;99020.47;;;11.91;100.00
19748;BME280;10032;51.386;12.516;2023-03-25T13:44:46;99001.38;;;11.72;100.00
19748;BME280;10032;51.386;12.516;2023-03-25T13:47:19;99000.88;;;11.70;100.00
19748;BME280;10032;51.386;12.516;2023-03-25T13:49:50;98992.63;;;11.80;100.00
19748;BME280;10032;51.386;12.516;2023-03-25T13:52:17;99002.34;;;11.86;100.00
19748;BME280;10032;51.386;12.516;2023-03-25T13:54:50;98982.94;;;11.98;100.00
19748;BME280;10032;51.386;12.516;2023-03-25T14:00:20;98975.22;;;12.10;100.00
19748;BME280;10032;51.386;12.516;2023-03-25T14:10:51;99006.19;;;12.09;100.00
19748;BME280;10032;51.386;12.516;2023-03-25T14:13:31;99002.28;;;12.20;100.00
19748;BME280;10032;51.386;12.516;2023-03-25T14:16:19;99017.28;;;12.12;100.00
19748;BME280;10032;51.386;12.516;2023-03-25T14:18:53;99017.53;;;12.16;100.00
19748;BME280;10032;51.386;12.516;2023-03-25T14:23:59;99019.13;;;12.17;100.00
19748;BME280;10032;51.386;12.516;2023-03-25T14:26:25;99016.13;;;12.18;100.00
19748;BME280;10032;51.386;12.516;2023-03-25T14:28:53;99033.22;;;12.19;100.00
19748;BME280;10032;51.386;12.516;2023-03-25T14:39:11;99026.06;;;12.28;100.00
19748;BME280;10032;51.386;12.516;2023-03-25T14:44:26;99010.00;;;12.55;100.00
19748;BME280;10032;51.386;12.516;2023-03-25T14:52:26;99022.63;;;12.69;100.00
19748;BME280;10032;51.386;12.516;2023-03-25T14:54:52;99025.63;;;12.68;100.00
19748;BME280;10032;51.386;12.516;2023-03-25T14:57:24;99030.16;;;12.72;100.00
19748;BME280;10032;51.386;12.516;2023-03-25T14:59:59;99018.31;;;12.63;100.00
19748;BME280;10032;51.386;12.516;2023-03-25T15:02:29;99013.94;;;12.44;100.00
19748;BME280;10032;51.386;12.516;2023-03-25T15:07:46;99019.09;;;12.45;100.00
19748;BME280;10032;51.386;12.516;2023-03-25T15:11:04;99019.03;;;12.50;100.00
19748;BME280;10032;51.386;12.516;2023-03-25T15:17:58;99011.41;;;12.52;100.00